sensor_id;sensor_type;location;lat;lon;timestamp;P1;durP1;ratioP1;P2;durP2;ratioP2
22254;SDS011;11296;42.684;23.322;2022-12-07T00:01:27;29.77;;;15.33;;
22254;SDS011;11296;42.684;23.322;2022-12-07T00:03:58;31.90;;;14.27;;
22254;SDS011;11296;42.684;23.322;2022-12-07T00:06:39;28.30;;;14.53;;
22254;SDS011;11296;42.684;23.322;2022-12-07T00:09:07;27.60;;;14.33;;
22254;SDS011;11296;42.684;23.322;2022-12-07T00:11:35;29.80;;;15.47;;
22254;SDS011;11296;42.684;23.322;2022-12-07T00:14:02;27.30;;;15.17;;
22254;SDS011;11296;42.684;23.322;2022-12-07T00:16:31;29.27;;;15.67;;
22254;SDS011;11296;42.684;23.322;2022-12-07T00:18:58;29.83;;;15.10;;
22254;SDS011;11296;42.684;23.322;2022-12-07T00:21:25;27.90;;;14.83;;
22254;SDS011;11296;42.684;23.322;2022-12-07T00:23:55;30.13;;;16.07;;
22254;SDS011;11296;42.684;23.322;2022-12-07T00:26:25;26.83;;;14.73;;
22254;SDS011;11296;42.684;23.322;2022-12-07T00:28:53;26.87;;;15.37;;
22254;SDS011;11296;42.684;23.322;2022-12-07T00:31:21;29.40;;;15.93;;
22254;SDS011;11296;42.684;23.322;2022-12-07T00:33:48;26.90;;;15.20;;
22254;SDS011;11296;42.684;23.322;2022-12-07T00:36:15;27.50;;;15.50;;
22254;SDS011;11296;42.684;23.322;2022-12-07T00:38:45;28.07;;;15.30;;
22254;SDS011;11296;42.684;23.322;2022-12-07T00:41:12;25.67;;;14.77;;
22254;SDS011;11296;42.684;23.322;2022-12-07T00:43:40;30.03;;;15.53;;
22254;SDS011;11296;42.684;23.322;2022-12-07T00:46:07;27.20;;;15.70;;
22254;SDS011;11296;42.684;23.322;2022-12-07T00:48:33;29.07;;;16.30;;
22254;SDS011;11296;42.684;23.322;2022-12-07T00:50:59;27.77;;;15.07;;
22254;SDS011;11296;42.684;23.322;2022-12-07T00:53:26;33.30;;;16.07;;
22254;SDS011;11296;42.684;23.322;2022-12-07T00:55:52;25.87;;;15.33;;
22254;SDS011;11296;42.684;23.322;2022-12-07T00:58:19;28.53;;;15.43;;
22254;SDS011;11296;42.684;23.322;2022-12-07T01:00:45;30.40;;;17.23;;
22254;SDS011;11296;42.684;23.322;2022-12-07T01:03:11;28.57;;;16.20;;
22254;SDS011;11296;42.684;23.322;2022-12-07T01:05:38;28.80;;;15.67;;
22254;SDS011;11296;42.684;23.322;2022-12-07T01:08:04;28.00;;;15.80;;
22254;SDS011;11296;42.684;23.322;2022-12-07T01:10:31;28.73;;;14.77;;
22254;SDS011;11296;42.684;23.322;2022-12-07T01:12:57;30.43;;;15.73;;
22254;SDS011;11296;42.684;23.322;2022-12-07T01:15:24;30.43;;;16.43;;
22254;SDS011;11296;42.684;23.322;2022-12-07T01:17:50;30.30;;;16.37;;
22254;SDS011;11296;42.684;23.322;2022-12-07T01:20:16;32.13;;;17.23;;
22254;SDS011;11296;42.684;23.322;2022-12-07T01:22:42;32.70;;;17.57;;
22254;SDS011;11296;42.684;23.322;2022-12-07T01:25:09;28.40;;;15.93;;
22254;SDS011;11296;42.684;23.322;2022-12-07T01:27:36;32.67;;;16.03;;
22254;SDS011;11296;42.684;23.322;2022-12-07T01:30:03;26.23;;;14.97;;
22254;SDS011;11296;42.684;23.322;2022-12-07T01:32:31;28.90;;;15.70;;
22254;SDS011;11296;42.684;23.322;2022-12-07T01:34:56;27.13;;;16.00;;
22254;SDS011;11296;42.684;23.322;2022-12-07T01:37:22;29.77;;;16.30;;
22254;SDS011;11296;42.684;23.322;2022-12-07T01:39:48;30.53;;;16.50;;
22254;SDS011;11296;42.684;23.322;2022-12-07T01:42:15;33.53;;;16.90;;
22254;SDS011;11296;42.684;23.322;2022-12-07T01:47:48;29.50;;;16.73;;
22254;SDS011;11296;42.684;23.322;2022-12-07T01:50:20;30.10;;;15.83;;
22254;SDS011;11296;42.684;23.322;2022-12-07T01:52:50;29.70;;;16.07;;
22254;SDS011;11296;42.684;23.322;2022-12-07T01:55:19;28.47;;;16.27;;
22254;SDS011;11296;42.684;23.322;2022-12-07T01:57:46;29.87;;;15.40;;
22254;SDS011;11296;42.684;23.322;2022-12-07T02:00:14;26.43;;;15.90;;
22254;SDS011;11296;42.684;23.322;2022-12-07T02:03:42;27.07;;;16.20;;
22254;SDS011;11296;42.684;23.322;2022-12-07T02:05:43;36.63;;;15.33;;
22254;SDS011;11296;42.684;23.322;2022-12-07T02:08:10;28.50;;;15.80;;
22254;SDS011;11296;42.684;23.322;2022-12-07T02:10:38;30.37;;;16.30;;
22254;SDS011;11296;42.684;23.322;2022-12-07T02:13:06;28.90;;;16.07;;
22254;SDS011;11296;42.684;23.322;2022-12-07T02:29:07;31.90;;;16.20;;
22254;SDS011;11296;42.684;23.322;2022-12-07T02:31:39;30.30;;;16.63;;
22254;SDS011;11296;42.684;23.322;2022-12-07T02:34:15;28.27;;;15.67;;
22254;SDS011;11296;42.684;23.322;2022-12-07T02:36:50;28.30;;;16.20;;
22254;SDS011;11296;42.684;23.322;2022-12-07T02:42:07;29.47;;;15.47;;
22254;SDS011;11296;42.684;23.322;2022-12-07T02:44:49;26.23;;;15.50;;
22254;SDS011;11296;42.684;23.322;2022-12-07T02:47:17;33.53;;;17.33;;
22254;SDS011;11296;42.684;23.322;2022-12-07T02:49:46;29.93;;;17.10;;
22254;SDS011;11296;42.684;23.322;2022-12-07T02:52:14;33.77;;;19.20;;
22254;SDS011;11296;42.684;23.322;2022-12-07T02:54:40;32.23;;;17.90;;
22254;SDS011;11296;42.684;23.322;2022-12-07T03:00:04;38.47;;;19.20;;
22254;SDS011;11296;42.684;23.322;2022-12-07T03:11:39;33.50;;;17.93;;
22254;SDS011;11296;42.684;23.322;2022-12-07T03:14:18;34.50;;;18.03;;
22254;SDS011;11296;42.684;23.322;2022-12-07T03:16:55;34.13;;;19.13;;
22254;SDS011;11296;42.684;23.322;2022-12-07T03:19:27;35.33;;;19.03;;
22254;SDS011;11296;42.684;23.322;2022-12-07T03:21:58;38.30;;;19.70;;
22254;SDS011;11296;42.684;23.322;2022-12-07T03:24:30;38.23;;;20.90;;
22254;SDS011;11296;42.684;23.322;2022-12-07T03:27:14;39.03;;;21.37;;
22254;SDS011;11296;42.684;23.322;2022-12-07T03:29:53;44.47;;;21.53;;
22254;SDS011;11296;42.684;23.322;2022-12-07T03:38:02;40.87;;;21.33;;
22254;SDS011;11296;42.684;23.322;2022-12-07T03:41:12;42.53;;;23.17;;
22254;SDS011;11296;42.684;23.322;2022-12-07T03:43:44;46.17;;;22.60;;
22254;SDS011;11296;42.684;23.322;2022-12-07T03:49:04;44.67;;;23.63;;
22254;SDS011;11296;42.684;23.322;2022-12-07T03:51:45;42.07;;;22.23;;
22254;SDS011;11296;42.684;23.322;2022-12-07T03:54:42;41.47;;;21.43;;
22254;SDS011;11296;42.684;23.322;2022-12-07T03:57:16;46.80;;;23.83;;
22254;SDS011;11296;42.684;23.322;2022-12-07T03:59:43;44.90;;;23.67;;
22254;SDS011;11296;42.684;23.322;2022-12-07T04:02:11;43.93;;;24.43;;
22254;SDS011;11296;42.684;23.322;2022-12-07T04:04:40;41.13;;;22.57;;
22254;SDS011;11296;42.684;23.322;2022-12-07T04:07:07;45.23;;;22.43;;
22254;SDS011;11296;42.684;23.322;2022-12-07T04:09:36;43.50;;;23.20;;
22254;SDS011;11296;42.684;23.322;2022-12-07T04:12:04;42.47;;;22.47;;
22254;SDS011;11296;42.684;23.322;2022-12-07T04:14:30;38.37;;;21.37;;
22254;SDS011;11296;42.684;23.322;2022-12-07T04:17:05;41.83;;;22.83;;
22254;SDS011;11296;42.684;23.322;2022-12-07T04:19:33;41.97;;;21.27;;
22254;SDS011;11296;42.684;23.322;2022-12-07T04:22:00;39.33;;;19.83;;
22254;SDS011;11296;42.684;23.322;2022-12-07T04:24:27;36.30;;;18.70;;
22254;SDS011;11296;42.684;23.322;2022-12-07T04:26:54;35.67;;;19.90;;
22254;SDS011;11296;42.684;23.322;2022-12-07T04:29:20;34.23;;;19.00;;
22254;SDS011;11296;42.684;23.322;2022-12-07T04:31:46;33.73;;;19.00;;
22254;SDS011;11296;42.684;23.322;2022-12-07T04:34:12;38.57;;;19.30;;
22254;SDS011;11296;42.684;23.322;2022-12-07T04:36:39;37.77;;;19.43;;
22254;SDS011;11296;42.684;23.322;2022-12-07T04:39:06;40.57;;;20.47;;
22254;SDS011;11296;42.684;23.322;2022-12-07T04:41:42;40.60;;;19.40;;
22254;SDS011;11296;42.684;23.322;2022-12-07T04:44:13;36.77;;;19.10;;
22254;SDS011;11296;42.684;23.322;2022-12-07T04:46:40;36.50;;;18.50;;
22254;SDS011;11296;42.684;23.322;2022-12-07T04:49:09;36.60;;;18.00;;
22254;SDS011;11296;42.684;23.322;2022-12-07T04:51:36;35.57;;;18.13;;
22254;SDS011;11296;42.684;23.322;2022-12-07T04:54:02;40.53;;;18.97;;
22254;SDS011;11296;42.684;23.322;2022-12-07T04:56:28;38.50;;;19.30;;
22254;SDS011;11296;42.684;23.322;2022-12-07T04:58:54;33.97;;;18.10;;
22254;SDS011;11296;42.684;23.322;2022-12-07T05:01:20;35.60;;;18.50;;
22254;SDS011;11296;42.684;23.322;2022-12-07T05:03:50;35.77;;;19.20;;
22254;SDS011;11296;42.684;23.322;2022-12-07T05:06:23;44.73;;;20.60;;
22254;SDS011;11296;42.684;23.322;2022-12-07T05:08:49;37.83;;;19.23;;
22254;SDS011;11296;42.684;23.322;2022-12-07T05:11:21;38.70;;;18.93;;
22254;SDS011;11296;42.684;23.322;2022-12-07T05:14:09;37.40;;;19.00;;
22254;SDS011;11296;42.684;23.322;2022-12-07T05:16:45;45.03;;;20.47;;
22254;SDS011;11296;42.684;23.322;2022-12-07T05:19:21;40.73;;;19.67;;
22254;SDS011;11296;42.684;23.322;2022-12-07T05:21:59;40.03;;;20.53;;
22254;SDS011;11296;42.684;23.322;2022-12-07T05:24:58;42.73;;;20.40;;
22254;SDS011;11296;42.684;23.322;2022-12-07T05:27:48;40.37;;;19.37;;
22254;SDS011;11296;42.684;23.322;2022-12-07T05:30:30;41.23;;;20.37;;
22254;SDS011;11296;42.684;23.322;2022-12-07T05:33:22;37.73;;;20.93;;
22254;SDS011;11296;42.684;23.322;2022-12-07T05:35:58;42.77;;;22.93;;
22254;SDS011;11296;42.684;23.322;2022-12-07T05:38:49;45.97;;;23.33;;
22254;SDS011;11296;42.684;23.322;2022-12-07T05:42:10;45.97;;;21.77;;
22254;SDS011;11296;42.684;23.322;2022-12-07T05:48:04;73.53;;;34.00;;
22254;SDS011;11296;42.684;23.322;2022-12-07T05:54:13;47.53;;;22.70;;
22254;SDS011;11296;42.684;23.322;2022-12-07T05:56:42;43.10;;;21.03;;
22254;SDS011;11296;42.684;23.322;2022-12-07T05:59:21;40.33;;;20.30;;
22254;SDS011;11296;42.684;23.322;2022-12-07T06:01:55;47.30;;;20.93;;
22254;SDS011;11296;42.684;23.322;2022-12-07T06:04:44;43.53;;;20.63;;
22254;SDS011;11296;42.684;23.322;2022-12-07T06:07:24;40.87;;;20.33;;
22254;SDS011;11296;42.684;23.322;2022-12-07T06:10:09;40.50;;;19.90;;
22254;SDS011;11296;42.684;23.322;2022-12-07T06:13:11;47.23;;;21.20;;
22254;SDS011;11296;42.684;23.322;2022-12-07T06:15:50;42.67;;;19.90;;
22254;SDS011;11296;42.684;23.322;2022-12-07T06:18:24;66.33;;;39.90;;
22254;SDS011;11296;42.684;23.322;2022-12-07T06:20:58;57.27;;;37.73;;
22254;SDS011;11296;42.684;23.322;2022-12-07T06:23:32;55.20;;;29.43;;
22254;SDS011;11296;42.684;23.322;2022-12-07T06:26:08;46.53;;;24.70;;
22254;SDS011;11296;42.684;23.322;2022-12-07T06:29:04;45.97;;;25.97;;
22254;SDS011;11296;42.684;23.322;2022-12-07T06:31:35;49.93;;;26.10;;
22254;SDS011;11296;42.684;23.322;2022-12-07T06:34:10;42.10;;;21.27;;
22254;SDS011;11296;42.684;23.322;2022-12-07T06:36:39;40.80;;;21.97;;
22254;SDS011;11296;42.684;23.322;2022-12-07T06:39:15;44.07;;;22.83;;
22254;SDS011;11296;42.684;23.322;2022-12-07T06:41:44;47.33;;;24.37;;
22254;SDS011;11296;42.684;23.322;2022-12-07T06:44:17;70.70;;;36.47;;
22254;SDS011;11296;42.684;23.322;2022-12-07T06:47:16;41.37;;;20.13;;
22254;SDS011;11296;42.684;23.322;2022-12-07T06:50:04;42.30;;;19.80;;
22254;SDS011;11296;42.684;23.322;2022-12-07T06:52:53;38.60;;;19.87;;
22254;SDS011;11296;42.684;23.322;2022-12-07T06:55:35;41.20;;;19.60;;
22254;SDS011;11296;42.684;23.322;2022-12-07T06:58:03;41.23;;;21.60;;
22254;SDS011;11296;42.684;23.322;2022-12-07T07:01:16;36.37;;;19.50;;
22254;SDS011;11296;42.684;23.322;2022-12-07T07:03:46;39.17;;;19.23;;
22254;SDS011;11296;42.684;23.322;2022-12-07T07:06:14;34.87;;;17.83;;
22254;SDS011;11296;42.684;23.322;2022-12-07T07:08:42;40.93;;;18.80;;
22254;SDS011;11296;42.684;23.322;2022-12-07T07:11:08;37.73;;;18.47;;
22254;SDS011;11296;42.684;23.322;2022-12-07T07:13:37;33.53;;;18.27;;
22254;SDS011;11296;42.684;23.322;2022-12-07T07:16:03;32.23;;;17.97;;
22254;SDS011;11296;42.684;23.322;2022-12-07T07:18:40;38.53;;;18.33;;
22254;SDS011;11296;42.684;23.322;2022-12-07T07:21:06;34.10;;;18.10;;
22254;SDS011;11296;42.684;23.322;2022-12-07T07:24:03;39.50;;;21.10;;
22254;SDS011;11296;42.684;23.322;2022-12-07T07:26:54;46.03;;;21.30;;
22254;SDS011;11296;42.684;23.322;2022-12-07T07:29:40;44.60;;;23.47;;
22254;SDS011;11296;42.684;23.322;2022-12-07T07:32:21;48.00;;;23.97;;
22254;SDS011;11296;42.684;23.322;2022-12-07T07:39:02;46.53;;;23.80;;
22254;SDS011;11296;42.684;23.322;2022-12-07T07:42:15;96.57;;;46.90;;
22254;SDS011;11296;42.684;23.322;2022-12-07T07:45:08;49.17;;;27.23;;
22254;SDS011;11296;42.684;23.322;2022-12-07T07:47:59;48.23;;;28.07;;
22254;SDS011;11296;42.684;23.322;2022-12-07T07:51:31;46.50;;;24.70;;
22254;SDS011;11296;42.684;23.322;2022-12-07T07:57:29;47.47;;;25.67;;
22254;SDS011;11296;42.684;23.322;2022-12-07T07:59:55;46.73;;;24.83;;
22254;SDS011;11296;42.684;23.322;2022-12-07T08:02:21;50.27;;;25.73;;
22254;SDS011;11296;42.684;23.322;2022-12-07T08:04:52;51.60;;;28.30;;
22254;SDS011;11296;42.684;23.322;2022-12-07T08:07:23;64.73;;;35.40;;
22254;SDS011;11296;42.684;23.322;2022-12-07T08:09:51;44.13;;;24.53;;
22254;SDS011;11296;42.684;23.322;2022-12-07T08:12:22;47.57;;;25.30;;
22254;SDS011;11296;42.684;23.322;2022-12-07T08:14:58;53.40;;;25.27;;
22254;SDS011;11296;42.684;23.322;2022-12-07T08:22:00;42.70;;;23.47;;
22254;SDS011;11296;42.684;23.322;2022-12-07T08:24:36;49.83;;;24.73;;
22254;SDS011;11296;42.684;23.322;2022-12-07T08:27:16;51.00;;;26.60;;
22254;SDS011;11296;42.684;23.322;2022-12-07T08:29:54;44.23;;;25.77;;
22254;SDS011;11296;42.684;23.322;2022-12-07T08:32:25;44.80;;;26.10;;
22254;SDS011;11296;42.684;23.322;2022-12-07T08:34:51;48.57;;;26.47;;
22254;SDS011;11296;42.684;23.322;2022-12-07T08:37:17;51.30;;;28.50;;
22254;SDS011;11296;42.684;23.322;2022-12-07T08:39:43;82.13;;;44.13;;
22254;SDS011;11296;42.684;23.322;2022-12-07T08:42:13;69.90;;;41.40;;
22254;SDS011;11296;42.684;23.322;2022-12-07T08:44:41;46.33;;;26.47;;
22254;SDS011;11296;42.684;23.322;2022-12-07T08:47:07;44.20;;;26.53;;
22254;SDS011;11296;42.684;23.322;2022-12-07T08:49:45;49.30;;;25.30;;
22254;SDS011;11296;42.684;23.322;2022-12-07T08:52:15;41.67;;;23.30;;
22254;SDS011;11296;42.684;23.322;2022-12-07T08:54:41;44.97;;;24.77;;
22254;SDS011;11296;42.684;23.322;2022-12-07T08:57:10;41.03;;;23.13;;
22254;SDS011;11296;42.684;23.322;2022-12-07T08:59:37;38.00;;;22.20;;
22254;SDS011;11296;42.684;23.322;2022-12-07T09:02:05;39.37;;;22.43;;
22254;SDS011;11296;42.684;23.322;2022-12-07T09:04:34;39.33;;;21.37;;
22254;SDS011;11296;42.684;23.322;2022-12-07T09:07:02;36.97;;;20.67;;
22254;SDS011;11296;42.684;23.322;2022-12-07T09:09:30;38.83;;;21.13;;
22254;SDS011;11296;42.684;23.322;2022-12-07T09:11:58;35.20;;;21.60;;
22254;SDS011;11296;42.684;23.322;2022-12-07T09:14:24;35.30;;;21.43;;
22254;SDS011;11296;42.684;23.322;2022-12-07T09:16:52;34.10;;;21.30;;
22254;SDS011;11296;42.684;23.322;2022-12-07T09:19:25;35.10;;;20.10;;
22254;SDS011;11296;42.684;23.322;2022-12-07T09:21:58;32.97;;;20.00;;
22254;SDS011;11296;42.684;23.322;2022-12-07T09:24:26;33.40;;;20.57;;
22254;SDS011;11296;42.684;23.322;2022-12-07T09:26:52;35.73;;;22.40;;
22254;SDS011;11296;42.684;23.322;2022-12-07T09:29:20;36.80;;;22.00;;
22254;SDS011;11296;42.684;23.322;2022-12-07T09:31:48;37.43;;;21.43;;
22254;SDS011;11296;42.684;23.322;2022-12-07T09:34:27;32.23;;;20.50;;
22254;SDS011;11296;42.684;23.322;2022-12-07T09:37:00;36.07;;;20.10;;
22254;SDS011;11296;42.684;23.322;2022-12-07T09:39:26;37.13;;;19.90;;
22254;SDS011;11296;42.684;23.322;2022-12-07T09:41:52;40.00;;;20.20;;
22254;SDS011;11296;42.684;23.322;2022-12-07T09:44:23;35.50;;;20.73;;
22254;SDS011;11296;42.684;23.322;2022-12-07T09:46:54;39.40;;;20.93;;
22254;SDS011;11296;42.684;23.322;2022-12-07T09:49:22;35.27;;;21.10;;
22254;SDS011;11296;42.684;23.322;2022-12-07T09:54:33;40.90;;;20.33;;
22254;SDS011;11296;42.684;23.322;2022-12-07T09:57:03;40.67;;;21.73;;
22254;SDS011;11296;42.684;23.322;2022-12-07T09:59:31;40.27;;;22.33;;
22254;SDS011;11296;42.684;23.322;2022-12-07T10:01:57;40.33;;;22.00;;
22254;SDS011;11296;42.684;23.322;2022-12-07T10:04:48;43.00;;;21.70;;
22254;SDS011;11296;42.684;23.322;2022-12-07T10:07:16;44.13;;;22.53;;
22254;SDS011;11296;42.684;23.322;2022-12-07T10:09:42;35.70;;;22.17;;
22254;SDS011;11296;42.684;23.322;2022-12-07T10:12:13;35.77;;;21.60;;
22254;SDS011;11296;42.684;23.322;2022-12-07T10:14:40;45.53;;;24.63;;
22254;SDS011;11296;42.684;23.322;2022-12-07T10:20:18;37.23;;;21.97;;
22254;SDS011;11296;42.684;23.322;2022-12-07T10:25:34;39.33;;;23.37;;
22254;SDS011;11296;42.684;23.322;2022-12-07T10:28:17;45.37;;;24.07;;
22254;SDS011;11296;42.684;23.322;2022-12-07T10:30:52;38.90;;;23.17;;
22254;SDS011;11296;42.684;23.322;2022-12-07T10:35:56;40.03;;;22.23;;
22254;SDS011;11296;42.684;23.322;2022-12-07T10:38:22;33.67;;;21.33;;
22254;SDS011;11296;42.684;23.322;2022-12-07T10:43:45;35.73;;;21.50;;
22254;SDS011;11296;42.684;23.322;2022-12-07T10:46:43;37.20;;;20.07;;
22254;SDS011;11296;42.684;23.322;2022-12-07T10:57:47;28.40;;;18.70;;
22254;SDS011;11296;42.684;23.322;2022-12-07T11:00:19;34.47;;;19.97;;
22254;SDS011;11296;42.684;23.322;2022-12-07T11:03:03;38.63;;;20.67;;
22254;SDS011;11296;42.684;23.322;2022-12-07T11:06:00;33.30;;;19.87;;
22254;SDS011;11296;42.684;23.322;2022-12-07T11:11:20;30.53;;;18.43;;
22254;SDS011;11296;42.684;23.322;2022-12-07T11:13:54;34.27;;;20.57;;
22254;SDS011;11296;42.684;23.322;2022-12-07T11:24:27;31.23;;;18.97;;
22254;SDS011;11296;42.684;23.322;2022-12-07T11:32:39;31.67;;;19.07;;
22254;SDS011;11296;42.684;23.322;2022-12-07T11:35:31;33.53;;;18.67;;
22254;SDS011;11296;42.684;23.322;2022-12-07T11:41:12;28.27;;;16.83;;
22254;SDS011;11296;42.684;23.322;2022-12-07T11:43:50;28.23;;;16.43;;
22254;SDS011;11296;42.684;23.322;2022-12-07T11:46:27;28.03;;;15.30;;
22254;SDS011;11296;42.684;23.322;2022-12-07T11:51:40;26.13;;;16.40;;
22254;SDS011;11296;42.684;23.322;2022-12-07T11:54:18;26.40;;;16.23;;
22254;SDS011;11296;42.684;23.322;2022-12-07T11:56:50;31.33;;;16.20;;
22254;SDS011;11296;42.684;23.322;2022-12-07T11:59:29;27.20;;;15.70;;
22254;SDS011;11296;42.684;23.322;2022-12-07T12:02:13;30.27;;;15.90;;
22254;SDS011;11296;42.684;23.322;2022-12-07T12:07:06;24.27;;;15.03;;
22254;SDS011;11296;42.684;23.322;2022-12-07T12:09:40;27.50;;;15.07;;
22254;SDS011;11296;42.684;23.322;2022-12-07T12:18:06;26.63;;;13.87;;
22254;SDS011;11296;42.684;23.322;2022-12-07T12:20:53;25.90;;;14.23;;
22254;SDS011;11296;42.684;23.322;2022-12-07T12:23:28;21.77;;;13.70;;
22254;SDS011;11296;42.684;23.322;2022-12-07T12:26:07;22.63;;;14.63;;
22254;SDS011;11296;42.684;23.322;2022-12-07T12:28:49;27.07;;;15.10;;
22254;SDS011;11296;42.684;23.322;2022-12-07T12:33:53;23.87;;;15.20;;
22254;SDS011;11296;42.684;23.322;2022-12-07T12:36:23;25.97;;;15.10;;
22254;SDS011;11296;42.684;23.322;2022-12-07T12:46:48;24.17;;;13.87;;
22254;SDS011;11296;42.684;23.322;2022-12-07T12:57:37;24.40;;;14.27;;
22254;SDS011;11296;42.684;23.322;2022-12-07T13:00:20;24.50;;;15.17;;
22254;SDS011;11296;42.684;23.322;2022-12-07T13:02:53;24.77;;;12.93;;
22254;SDS011;11296;42.684;23.322;2022-12-07T13:05:27;19.90;;;12.17;;
22254;SDS011;11296;42.684;23.322;2022-12-07T13:10:52;23.00;;;12.40;;
22254;SDS011;11296;42.684;23.322;2022-12-07T13:18:41;19.80;;;12.03;;
22254;SDS011;11296;42.684;23.322;2022-12-07T13:23:58;16.43;;;10.97;;
22254;SDS011;11296;42.684;23.322;2022-12-07T13:29:18;20.83;;;11.93;;
22254;SDS011;11296;42.684;23.322;2022-12-07T13:34:38;25.70;;;13.17;;
22254;SDS011;11296;42.684;23.322;2022-12-07T13:39:54;54.40;;;34.00;;
22254;SDS011;11296;42.684;23.322;2022-12-07T13:42:29;24.93;;;14.23;;
22254;SDS011;11296;42.684;23.322;2022-12-07T13:44:57;19.60;;;11.70;;
22254;SDS011;11296;42.684;23.322;2022-12-07T13:47:35;20.63;;;12.00;;
22254;SDS011;11296;42.684;23.322;2022-12-07T13:50:27;21.03;;;11.67;;
22254;SDS011;11296;42.684;23.322;2022-12-07T13:52:59;23.57;;;12.50;;
22254;SDS011;11296;42.684;23.322;2022-12-07T13:55:26;21.37;;;11.90;;
22254;SDS011;11296;42.684;23.322;2022-12-07T13:57:56;20.43;;;11.53;;
22254;SDS011;11296;42.684;23.322;2022-12-07T14:00:23;20.27;;;11.63;;
22254;SDS011;11296;42.684;23.322;2022-12-07T14:05:28;27.23;;;16.37;;
22254;SDS011;11296;42.684;23.322;2022-12-07T14:16:04;20.37;;;11.50;;
22254;SDS011;11296;42.684;23.322;2022-12-07T14:18:47;20.30;;;12.40;;
22254;SDS011;11296;42.684;23.322;2022-12-07T14:21:20;18.77;;;11.23;;
22254;SDS011;11296;42.684;23.322;2022-12-07T14:26:42;23.93;;;12.20;;
22254;SDS011;11296;42.684;23.322;2022-12-07T14:31:46;23.70;;;12.47;;
22254;SDS011;11296;42.684;23.322;2022-12-07T14:34:23;20.27;;;11.00;;
22254;SDS011;11296;42.684;23.322;2022-12-07T14:36:52;23.93;;;11.60;;
22254;SDS011;11296;42.684;23.322;2022-12-07T14:39:25;26.83;;;12.90;;
22254;SDS011;11296;42.684;23.322;2022-12-07T14:41:51;21.60;;;12.07;;
22254;SDS011;11296;42.684;23.322;2022-12-07T14:44:20;24.33;;;12.93;;
22254;SDS011;11296;42.684;23.322;2022-12-07T14:46:50;22.43;;;12.77;;
22254;SDS011;11296;42.684;23.322;2022-12-07T14:49:18;30.57;;;13.77;;
22254;SDS011;11296;42.684;23.322;2022-12-07T14:51:49;25.30;;;13.60;;
22254;SDS011;11296;42.684;23.322;2022-12-07T14:54:19;31.17;;;14.03;;
22254;SDS011;11296;42.684;23.322;2022-12-07T14:57:00;30.70;;;13.80;;
22254;SDS011;11296;42.684;23.322;2022-12-07T14:59:25;27.63;;;13.23;;
22254;SDS011;11296;42.684;23.322;2022-12-07T15:01:51;28.40;;;16.93;;
22254;SDS011;11296;42.684;23.322;2022-12-07T15:04:28;30.67;;;15.57;;
22254;SDS011;11296;42.684;23.322;2022-12-07T15:07:21;35.20;;;16.07;;
22254;SDS011;11296;42.684;23.322;2022-12-07T15:10:21;36.23;;;15.60;;
22254;SDS011;11296;42.684;23.322;2022-12-07T15:12:57;37.30;;;16.23;;
22254;SDS011;11296;42.684;23.322;2022-12-07T15:15:50;36.87;;;16.10;;
22254;SDS011;11296;42.684;23.322;2022-12-07T15:18:50;33.67;;;16.50;;
22254;SDS011;11296;42.684;23.322;2022-12-07T15:21:16;40.83;;;16.97;;
22254;SDS011;11296;42.684;23.322;2022-12-07T15:23:46;37.23;;;16.13;;
22254;SDS011;11296;42.684;23.322;2022-12-07T15:26:18;38.50;;;17.07;;
22254;SDS011;11296;42.684;23.322;2022-12-07T15:29:18;35.97;;;16.30;;
22254;SDS011;11296;42.684;23.322;2022-12-07T15:32:13;35.97;;;16.90;;
22254;SDS011;11296;42.684;23.322;2022-12-07T15:34:42;37.87;;;18.00;;
22254;SDS011;11296;42.684;23.322;2022-12-07T15:37:11;33.37;;;18.17;;
22254;SDS011;11296;42.684;23.322;2022-12-07T15:39:44;35.53;;;18.17;;
22254;SDS011;11296;42.684;23.322;2022-12-07T15:42:16;38.53;;;18.67;;
22254;SDS011;11296;42.684;23.322;2022-12-07T15:44:55;41.33;;;18.57;;
22254;SDS011;11296;42.684;23.322;2022-12-07T15:47:43;36.47;;;17.20;;
22254;SDS011;11296;42.684;23.322;2022-12-07T15:50:17;36.87;;;18.50;;
22254;SDS011;11296;42.684;23.322;2022-12-07T15:52:56;43.70;;;23.80;;
22254;SDS011;11296;42.684;23.322;2022-12-07T15:55:21;38.30;;;18.70;;
22254;SDS011;11296;42.684;23.322;2022-12-07T15:57:47;38.27;;;18.47;;
22254;SDS011;11296;42.684;23.322;2022-12-07T16:00:14;33.43;;;18.40;;
22254;SDS011;11296;42.684;23.322;2022-12-07T16:02:53;44.67;;;20.30;;
22254;SDS011;11296;42.684;23.322;2022-12-07T16:05:19;36.80;;;19.73;;
22254;SDS011;11296;42.684;23.322;2022-12-07T16:07:46;39.50;;;18.73;;
22254;SDS011;11296;42.684;23.322;2022-12-07T16:10:17;37.37;;;19.43;;
22254;SDS011;11296;42.684;23.322;2022-12-07T16:12:54;42.33;;;17.87;;
22254;SDS011;11296;42.684;23.322;2022-12-07T16:15:28;40.63;;;18.60;;
22254;SDS011;11296;42.684;23.322;2022-12-07T16:17:55;36.70;;;18.83;;
22254;SDS011;11296;42.684;23.322;2022-12-07T16:20:24;41.03;;;19.97;;
22254;SDS011;11296;42.684;23.322;2022-12-07T16:22:52;43.70;;;19.70;;
22254;SDS011;11296;42.684;23.322;2022-12-07T16:25:21;39.07;;;19.27;;
22254;SDS011;11296;42.684;23.322;2022-12-07T16:27:46;47.43;;;20.67;;
22254;SDS011;11296;42.684;23.322;2022-12-07T16:30:13;50.37;;;21.60;;
22254;SDS011;11296;42.684;23.322;2022-12-07T16:32:40;41.43;;;21.53;;
22254;SDS011;11296;42.684;23.322;2022-12-07T16:35:06;46.87;;;23.23;;
22254;SDS011;11296;42.684;23.322;2022-12-07T16:37:32;44.20;;;21.70;;
22254;SDS011;11296;42.684;23.322;2022-12-07T16:40:00;55.33;;;22.00;;
22254;SDS011;11296;42.684;23.322;2022-12-07T16:42:25;47.77;;;22.27;;
22254;SDS011;11296;42.684;23.322;2022-12-07T16:44:51;44.53;;;22.40;;
22254;SDS011;11296;42.684;23.322;2022-12-07T16:47:25;41.77;;;21.17;;
22254;SDS011;11296;42.684;23.322;2022-12-07T16:49:50;50.13;;;22.63;;
22254;SDS011;11296;42.684;23.322;2022-12-07T16:52:24;40.77;;;21.17;;
22254;SDS011;11296;42.684;23.322;2022-12-07T16:54:50;44.93;;;22.23;;
22254;SDS011;11296;42.684;23.322;2022-12-07T16:57:16;42.13;;;22.27;;
22254;SDS011;11296;42.684;23.322;2022-12-07T16:59:42;48.30;;;23.10;;
22254;SDS011;11296;42.684;23.322;2022-12-07T17:02:10;53.83;;;24.97;;
22254;SDS011;11296;42.684;23.322;2022-12-07T17:04:39;53.97;;;25.33;;
22254;SDS011;11296;42.684;23.322;2022-12-07T17:07:07;53.97;;;25.37;;
22254;SDS011;11296;42.684;23.322;2022-12-07T17:09:33;51.27;;;25.30;;
22254;SDS011;11296;42.684;23.322;2022-12-07T17:12:00;54.20;;;25.70;;
22254;SDS011;11296;42.684;23.322;2022-12-07T17:14:26;52.67;;;24.37;;
22254;SDS011;11296;42.684;23.322;2022-12-07T17:17:10;57.13;;;24.97;;
22254;SDS011;11296;42.684;23.322;2022-12-07T17:19:36;50.83;;;25.73;;
22254;SDS011;11296;42.684;23.322;2022-12-07T17:22:02;52.47;;;26.83;;
22254;SDS011;11296;42.684;23.322;2022-12-07T17:24:30;54.97;;;27.73;;
22254;SDS011;11296;42.684;23.322;2022-12-07T17:26:56;57.90;;;30.23;;
22254;SDS011;11296;42.684;23.322;2022-12-07T17:29:21;60.17;;;31.57;;